Terminal Aerodrome Forecast
Issued by NWS

Home | Current Version | Previous Version | Graphics & Text | Print | Product List | Glossary On
Versions: 1 2 3 4 5 6 7 8 9 10 11 12 13 14 15 16 17 18 19 20 21 22 23 24
196
FTUS43 KBIS 052207 AAA
TAFDIK
TAF AMD
KDIK 052207Z 0522/0618 31022G31KT 1/2SM BLSN VCSH OVC015
     FM060000 30031G43KT 1/4SM BLSN OVC008
     FM061100 30022G31KT 1SM BLSN BKN035=

USA.gov is the U.S. government's official web portal to all federal, state and local government web resources and services.